sensor_id;sensor_type;location;lat;lon;timestamp;P1;durP1;ratioP1;P2;durP2;ratioP2
42964;SDS011;28604;51.204;22.552;2024-01-11T00:01:22;84.75;;;29.50;;
42964;SDS011;28604;51.204;22.552;2024-01-11T00:03:49;82.10;;;28.05;;
42964;SDS011;28604;51.204;22.552;2024-01-11T00:06:14;80.47;;;30.27;;
42964;SDS011;28604;51.204;22.552;2024-01-11T00:08:40;86.07;;;30.55;;
42964;SDS011;28604;51.204;22.552;2024-01-11T00:11:06;79.60;;;26.92;;
42964;SDS011;28604;51.204;22.552;2024-01-11T00:13:32;91.03;;;30.70;;
42964;SDS011;28604;51.204;22.552;2024-01-11T00:15:58;75.88;;;29.27;;
42964;SDS011;28604;51.204;22.552;2024-01-11T00:18:24;85.80;;;27.77;;
42964;SDS011;28604;51.204;22.552;2024-01-11T00:20:50;81.55;;;29.10;;
42964;SDS011;28604;51.204;22.552;2024-01-11T00:23:17;88.78;;;31.88;;
42964;SDS011;28604;51.204;22.552;2024-01-11T00:25:43;85.85;;;28.35;;
42964;SDS011;28604;51.204;22.552;2024-01-11T00:28:09;83.53;;;30.15;;
42964;SDS011;28604;51.204;22.552;2024-01-11T00:30:35;89.68;;;30.05;;
42964;SDS011;28604;51.204;22.552;2024-01-11T00:33:01;89.97;;;29.77;;
42964;SDS011;28604;51.204;22.552;2024-01-11T00:35:27;91.72;;;31.80;;
42964;SDS011;28604;51.204;22.552;2024-01-11T00:37:53;83.50;;;30.73;;
42964;SDS011;28604;51.204;22.552;2024-01-11T00:40:19;84.57;;;31.25;;
42964;SDS011;28604;51.204;22.552;2024-01-11T00:42:45;89.82;;;30.70;;
42964;SDS011;28604;51.204;22.552;2024-01-11T00:45:11;88.28;;;32.63;;
42964;SDS011;28604;51.204;22.552;2024-01-11T00:47:37;93.63;;;31.40;;
42964;SDS011;28604;51.204;22.552;2024-01-11T00:50:03;83.43;;;30.15;;
42964;SDS011;28604;51.204;22.552;2024-01-11T00:52:29;86.20;;;30.40;;
42964;SDS011;28604;51.204;22.552;2024-01-11T00:54:55;86.40;;;31.48;;
42964;SDS011;28604;51.204;22.552;2024-01-11T00:57:21;89.68;;;30.63;;
42964;SDS011;28604;51.204;22.552;2024-01-11T00:59:47;86.38;;;29.08;;
42964;SDS011;28604;51.204;22.552;2024-01-11T01:02:13;89.78;;;31.92;;
42964;SDS011;28604;51.204;22.552;2024-01-11T01:04:39;88.20;;;32.05;;
42964;SDS011;28604;51.204;22.552;2024-01-11T01:07:05;96.50;;;32.92;;
42964;SDS011;28604;51.204;22.552;2024-01-11T01:09:31;88.68;;;31.90;;
42964;SDS011;28604;51.204;22.552;2024-01-11T01:11:57;93.05;;;32.50;;
42964;SDS011;28604;51.204;22.552;2024-01-11T01:14:23;96.03;;;34.10;;
42964;SDS011;28604;51.204;22.552;2024-01-11T01:16:49;95.68;;;31.90;;
42964;SDS011;28604;51.204;22.552;2024-01-11T01:19:15;99.18;;;34.13;;
42964;SDS011;28604;51.204;22.552;2024-01-11T01:21:41;98.68;;;33.03;;
42964;SDS011;28604;51.204;22.552;2024-01-11T01:24:07;87.95;;;33.25;;
42964;SDS011;28604;51.204;22.552;2024-01-11T01:26:33;97.38;;;33.03;;
42964;SDS011;28604;51.204;22.552;2024-01-11T01:28:58;95.93;;;32.60;;
42964;SDS011;28604;51.204;22.552;2024-01-11T01:31:25;86.50;;;31.08;;
42964;SDS011;28604;51.204;22.552;2024-01-11T01:33:51;99.65;;;34.17;;
42964;SDS011;28604;51.204;22.552;2024-01-11T01:36:17;93.22;;;32.28;;
42964;SDS011;28604;51.204;22.552;2024-01-11T01:38:43;86.15;;;31.58;;
42964;SDS011;28604;51.204;22.552;2024-01-11T01:41:09;89.47;;;31.15;;
42964;SDS011;28604;51.204;22.552;2024-01-11T01:43:35;89.97;;;30.88;;
42964;SDS011;28604;51.204;22.552;2024-01-11T01:46:01;83.85;;;31.42;;
42964;SDS011;28604;51.204;22.552;2024-01-11T01:48:28;88.60;;;31.35;;
42964;SDS011;28604;51.204;22.552;2024-01-11T01:50:54;85.10;;;32.58;;
42964;SDS011;28604;51.204;22.552;2024-01-11T01:53:21;89.85;;;31.30;;
42964;SDS011;28604;51.204;22.552;2024-01-11T01:55:50;98.18;;;34.17;;
42964;SDS011;28604;51.204;22.552;2024-01-11T01:58:17;90.13;;;31.13;;
42964;SDS011;28604;51.204;22.552;2024-01-11T02:00:44;91.35;;;33.55;;
42964;SDS011;28604;51.204;22.552;2024-01-11T02:03:12;93.05;;;32.67;;
42964;SDS011;28604;51.204;22.552;2024-01-11T02:05:41;87.10;;;30.75;;
42964;SDS011;28604;51.204;22.552;2024-01-11T02:08:07;88.60;;;30.88;;
42964;SDS011;28604;51.204;22.552;2024-01-11T02:10:37;89.70;;;30.98;;
42964;SDS011;28604;51.204;22.552;2024-01-11T02:13:04;93.85;;;32.40;;
42964;SDS011;28604;51.204;22.552;2024-01-11T02:15:30;84.10;;;30.33;;
42964;SDS011;28604;51.204;22.552;2024-01-11T02:17:56;80.68;;;31.88;;
42964;SDS011;28604;51.204;22.552;2024-01-11T02:20:22;88.13;;;32.92;;
42964;SDS011;28604;51.204;22.552;2024-01-11T02:22:50;86.72;;;32.03;;
42964;SDS011;28604;51.204;22.552;2024-01-11T02:25:21;81.30;;;30.55;;
42964;SDS011;28604;51.204;22.552;2024-01-11T02:27:47;85.05;;;30.55;;
42964;SDS011;28604;51.204;22.552;2024-01-11T02:30:15;95.97;;;32.47;;
42964;SDS011;28604;51.204;22.552;2024-01-11T02:32:45;90.75;;;32.70;;
42964;SDS011;28604;51.204;22.552;2024-01-11T02:35:13;85.38;;;30.83;;
42964;SDS011;28604;51.204;22.552;2024-01-11T02:37:40;76.57;;;29.77;;
42964;SDS011;28604;51.204;22.552;2024-01-11T02:40:07;87.45;;;31.13;;
42964;SDS011;28604;51.204;22.552;2024-01-11T02:42:34;85.20;;;32.58;;
42964;SDS011;28604;51.204;22.552;2024-01-11T02:45:02;83.95;;;29.52;;
42964;SDS011;28604;51.204;22.552;2024-01-11T02:47:28;86.25;;;33.38;;
42964;SDS011;28604;51.204;22.552;2024-01-11T02:49:54;94.05;;;31.92;;
42964;SDS011;28604;51.204;22.552;2024-01-11T02:52:22;85.35;;;31.10;;
42964;SDS011;28604;51.204;22.552;2024-01-11T02:54:48;96.47;;;33.05;;
42964;SDS011;28604;51.204;22.552;2024-01-11T02:57:14;94.68;;;33.72;;
42964;SDS011;28604;51.204;22.552;2024-01-11T02:59:41;89.95;;;32.33;;
42964;SDS011;28604;51.204;22.552;2024-01-11T03:02:08;89.85;;;32.15;;
42964;SDS011;28604;51.204;22.552;2024-01-11T03:04:34;95.90;;;35.03;;
42964;SDS011;28604;51.204;22.552;2024-01-11T03:07:00;90.47;;;31.30;;
42964;SDS011;28604;51.204;22.552;2024-01-11T03:09:26;83.43;;;31.23;;
42964;SDS011;28604;51.204;22.552;2024-01-11T03:11:52;86.85;;;33.83;;
42964;SDS011;28604;51.204;22.552;2024-01-11T03:14:18;81.80;;;29.52;;
42964;SDS011;28604;51.204;22.552;2024-01-11T03:16:43;85.18;;;32.35;;
42964;SDS011;28604;51.204;22.552;2024-01-11T03:19:10;81.28;;;30.92;;
42964;SDS011;28604;51.204;22.552;2024-01-11T03:21:40;83.25;;;31.77;;
42964;SDS011;28604;51.204;22.552;2024-01-11T03:24:08;88.22;;;31.98;;
42964;SDS011;28604;51.204;22.552;2024-01-11T03:26:33;83.20;;;31.55;;
42964;SDS011;28604;51.204;22.552;2024-01-11T03:28:59;76.82;;;30.38;;
42964;SDS011;28604;51.204;22.552;2024-01-11T03:31:25;86.57;;;32.78;;
42964;SDS011;28604;51.204;22.552;2024-01-11T03:33:51;83.70;;;29.63;;
42964;SDS011;28604;51.204;22.552;2024-01-11T03:36:17;87.85;;;31.55;;
42964;SDS011;28604;51.204;22.552;2024-01-11T03:38:43;86.50;;;31.52;;
42964;SDS011;28604;51.204;22.552;2024-01-11T03:41:09;83.43;;;32.08;;
42964;SDS011;28604;51.204;22.552;2024-01-11T03:43:36;81.80;;;32.28;;
42964;SDS011;28604;51.204;22.552;2024-01-11T03:46:02;89.05;;;33.45;;
42964;SDS011;28604;51.204;22.552;2024-01-11T03:48:30;88.10;;;31.10;;
42964;SDS011;28604;51.204;22.552;2024-01-11T03:50:56;81.35;;;30.00;;
42964;SDS011;28604;51.204;22.552;2024-01-11T03:53:22;79.28;;;33.40;;
42964;SDS011;28604;51.204;22.552;2024-01-11T03:55:48;81.63;;;32.30;;
42964;SDS011;28604;51.204;22.552;2024-01-11T03:58:14;76.88;;;30.58;;
42964;SDS011;28604;51.204;22.552;2024-01-11T04:00:40;84.90;;;32.63;;
42964;SDS011;28604;51.204;22.552;2024-01-11T04:03:06;87.43;;;34.17;;
42964;SDS011;28604;51.204;22.552;2024-01-11T04:05:32;80.38;;;31.15;;
42964;SDS011;28604;51.204;22.552;2024-01-11T04:07:58;82.78;;;32.72;;
42964;SDS011;28604;51.204;22.552;2024-01-11T04:10:24;81.13;;;31.73;;
42964;SDS011;28604;51.204;22.552;2024-01-11T04:12:50;93.88;;;32.42;;
42964;SDS011;28604;51.204;22.552;2024-01-11T04:15:16;87.15;;;33.15;;
42964;SDS011;28604;51.204;22.552;2024-01-11T04:17:42;81.78;;;31.63;;
42964;SDS011;28604;51.204;22.552;2024-01-11T04:20:08;84.22;;;32.13;;
42964;SDS011;28604;51.204;22.552;2024-01-11T04:22:34;86.18;;;32.42;;
42964;SDS011;28604;51.204;22.552;2024-01-11T04:25:00;90.70;;;31.33;;
42964;SDS011;28604;51.204;22.552;2024-01-11T04:27:26;86.10;;;32.33;;
42964;SDS011;28604;51.204;22.552;2024-01-11T04:29:52;84.32;;;32.20;;
42964;SDS011;28604;51.204;22.552;2024-01-11T04:32:18;81.63;;;29.58;;
42964;SDS011;28604;51.204;22.552;2024-01-11T04:34:44;90.40;;;31.73;;
42964;SDS011;28604;51.204;22.552;2024-01-11T04:37:10;85.18;;;32.80;;
42964;SDS011;28604;51.204;22.552;2024-01-11T04:39:36;88.93;;;31.38;;
42964;SDS011;28604;51.204;22.552;2024-01-11T04:42:02;93.35;;;33.30;;
42964;SDS011;28604;51.204;22.552;2024-01-11T04:44:28;82.75;;;31.55;;
42964;SDS011;28604;51.204;22.552;2024-01-11T04:46:54;88.32;;;34.53;;
42964;SDS011;28604;51.204;22.552;2024-01-11T04:49:20;89.07;;;32.22;;
42964;SDS011;28604;51.204;22.552;2024-01-11T04:51:46;84.78;;;31.23;;
42964;SDS011;28604;51.204;22.552;2024-01-11T04:54:11;84.15;;;30.80;;
42964;SDS011;28604;51.204;22.552;2024-01-11T04:56:37;82.88;;;31.10;;
42964;SDS011;28604;51.204;22.552;2024-01-11T04:59:03;92.00;;;33.47;;
42964;SDS011;28604;51.204;22.552;2024-01-11T05:01:29;78.18;;;33.75;;
42964;SDS011;28604;51.204;22.552;2024-01-11T05:03:55;88.70;;;33.55;;
42964;SDS011;28604;51.204;22.552;2024-01-11T05:06:21;88.30;;;31.20;;
42964;SDS011;28604;51.204;22.552;2024-01-11T05:08:48;81.70;;;32.63;;
42964;SDS011;28604;51.204;22.552;2024-01-11T05:11:18;85.78;;;32.05;;
42964;SDS011;28604;51.204;22.552;2024-01-11T05:13:49;89.35;;;32.75;;
42964;SDS011;28604;51.204;22.552;2024-01-11T05:16:37;93.22;;;33.22;;
42964;SDS011;28604;51.204;22.552;2024-01-11T05:19:02;91.50;;;34.47;;
42964;SDS011;28604;51.204;22.552;2024-01-11T05:21:28;88.05;;;33.13;;
42964;SDS011;28604;51.204;22.552;2024-01-11T05:23:54;86.60;;;33.45;;
42964;SDS011;28604;51.204;22.552;2024-01-11T05:26:20;92.03;;;34.92;;
42964;SDS011;28604;51.204;22.552;2024-01-11T05:28:46;87.05;;;33.60;;
42964;SDS011;28604;51.204;22.552;2024-01-11T05:31:13;92.82;;;34.17;;
42964;SDS011;28604;51.204;22.552;2024-01-11T05:33:40;92.47;;;34.03;;
42964;SDS011;28604;51.204;22.552;2024-01-11T05:36:06;94.15;;;34.03;;
42964;SDS011;28604;51.204;22.552;2024-01-11T05:38:33;91.63;;;35.20;;
42964;SDS011;28604;51.204;22.552;2024-01-11T05:41:00;93.38;;;33.95;;
42964;SDS011;28604;51.204;22.552;2024-01-11T05:43:27;87.30;;;33.47;;
42964;SDS011;28604;51.204;22.552;2024-01-11T05:45:53;101.25;;;37.78;;
42964;SDS011;28604;51.204;22.552;2024-01-11T05:48:19;94.78;;;34.70;;
42964;SDS011;28604;51.204;22.552;2024-01-11T05:50:45;89.03;;;32.10;;
42964;SDS011;28604;51.204;22.552;2024-01-11T05:53:11;94.90;;;35.90;;
42964;SDS011;28604;51.204;22.552;2024-01-11T05:55:38;96.15;;;37.00;;
42964;SDS011;28604;51.204;22.552;2024-01-11T05:58:04;91.22;;;35.08;;
42964;SDS011;28604;51.204;22.552;2024-01-11T06:00:31;94.72;;;37.20;;
42964;SDS011;28604;51.204;22.552;2024-01-11T06:06:00;108.50;;;37.42;;
42964;SDS011;28604;51.204;22.552;2024-01-11T06:08:28;101.00;;;38.13;;
42964;SDS011;28604;51.204;22.552;2024-01-11T06:10:54;101.78;;;39.58;;
42964;SDS011;28604;51.204;22.552;2024-01-11T06:13:20;97.22;;;34.58;;
42964;SDS011;28604;51.204;22.552;2024-01-11T06:15:46;104.03;;;37.38;;
42964;SDS011;28604;51.204;22.552;2024-01-11T06:18:12;96.32;;;37.00;;
42964;SDS011;28604;51.204;22.552;2024-01-11T06:20:38;100.93;;;38.60;;
42964;SDS011;28604;51.204;22.552;2024-01-11T06:23:04;96.47;;;37.20;;
42964;SDS011;28604;51.204;22.552;2024-01-11T06:25:30;105.40;;;40.95;;
42964;SDS011;28604;51.204;22.552;2024-01-11T06:27:56;112.15;;;40.83;;
42964;SDS011;28604;51.204;22.552;2024-01-11T06:30:22;96.45;;;38.03;;
42964;SDS011;28604;51.204;22.552;2024-01-11T06:32:48;88.90;;;37.13;;
42964;SDS011;28604;51.204;22.552;2024-01-11T06:35:13;99.03;;;39.20;;
42964;SDS011;28604;51.204;22.552;2024-01-11T06:37:40;96.43;;;38.80;;
42964;SDS011;28604;51.204;22.552;2024-01-11T06:40:05;98.93;;;38.45;;
42964;SDS011;28604;51.204;22.552;2024-01-11T06:42:33;103.70;;;38.65;;
42964;SDS011;28604;51.204;22.552;2024-01-11T06:44:59;102.43;;;40.72;;
42964;SDS011;28604;51.204;22.552;2024-01-11T06:47:26;101.03;;;40.08;;
42964;SDS011;28604;51.204;22.552;2024-01-11T06:49:53;110.88;;;39.17;;
42964;SDS011;28604;51.204;22.552;2024-01-11T06:52:19;97.20;;;38.55;;
42964;SDS011;28604;51.204;22.552;2024-01-11T06:54:45;97.25;;;38.83;;
42964;SDS011;28604;51.204;22.552;2024-01-11T06:57:11;94.30;;;37.85;;
42964;SDS011;28604;51.204;22.552;2024-01-11T06:59:37;94.53;;;37.10;;
42964;SDS011;28604;51.204;22.552;2024-01-11T07:04:54;107.70;;;40.28;;
42964;SDS011;28604;51.204;22.552;2024-01-11T07:07:20;100.85;;;39.17;;
42964;SDS011;28604;51.204;22.552;2024-01-11T07:09:46;107.95;;;42.60;;
42964;SDS011;28604;51.204;22.552;2024-01-11T07:12:12;112.50;;;41.92;;
42964;SDS011;28604;51.204;22.552;2024-01-11T07:14:38;99.85;;;38.22;;
42964;SDS011;28604;51.204;22.552;2024-01-11T07:17:04;94.20;;;37.03;;
42964;SDS011;28604;51.204;22.552;2024-01-11T07:19:31;107.97;;;42.40;;
42964;SDS011;28604;51.204;22.552;2024-01-11T07:21:57;97.05;;;38.03;;
42964;SDS011;28604;51.204;22.552;2024-01-11T07:24:22;97.78;;;40.05;;
42964;SDS011;28604;51.204;22.552;2024-01-11T07:26:48;98.18;;;39.13;;
42964;SDS011;28604;51.204;22.552;2024-01-11T07:29:14;98.63;;;38.55;;
42964;SDS011;28604;51.204;22.552;2024-01-11T07:31:40;101.68;;;39.83;;
42964;SDS011;28604;51.204;22.552;2024-01-11T07:34:06;107.47;;;39.40;;
42964;SDS011;28604;51.204;22.552;2024-01-11T07:36:32;102.07;;;38.97;;
42964;SDS011;28604;51.204;22.552;2024-01-11T07:38:58;108.18;;;42.75;;
42964;SDS011;28604;51.204;22.552;2024-01-11T07:41:24;101.68;;;40.53;;
42964;SDS011;28604;51.204;22.552;2024-01-11T07:43:50;99.00;;;39.20;;
42964;SDS011;28604;51.204;22.552;2024-01-11T07:46:16;98.93;;;40.22;;
42964;SDS011;28604;51.204;22.552;2024-01-11T07:48:42;106.25;;;39.95;;
42964;SDS011;28604;51.204;22.552;2024-01-11T07:51:09;110.78;;;40.08;;
42964;SDS011;28604;51.204;22.552;2024-01-11T07:53:34;99.95;;;39.75;;
42964;SDS011;28604;51.204;22.552;2024-01-11T07:56:00;102.18;;;38.20;;
42964;SDS011;28604;51.204;22.552;2024-01-11T07:58:26;105.82;;;42.65;;
42964;SDS011;28604;51.204;22.552;2024-01-11T08:00:52;99.35;;;40.45;;
42964;SDS011;28604;51.204;22.552;2024-01-11T08:03:22;102.57;;;39.22;;
42964;SDS011;28604;51.204;22.552;2024-01-11T08:05:48;113.22;;;42.45;;
42964;SDS011;28604;51.204;22.552;2024-01-11T08:08:16;92.13;;;40.00;;
42964;SDS011;28604;51.204;22.552;2024-01-11T08:10:42;104.72;;;39.85;;
42964;SDS011;28604;51.204;22.552;2024-01-11T08:13:08;98.90;;;39.50;;
42964;SDS011;28604;51.204;22.552;2024-01-11T08:15:35;108.35;;;40.33;;
42964;SDS011;28604;51.204;22.552;2024-01-11T08:18:03;96.75;;;39.38;;
42964;SDS011;28604;51.204;22.552;2024-01-11T08:20:30;110.28;;;43.50;;
42964;SDS011;28604;51.204;22.552;2024-01-11T08:22:56;95.05;;;37.90;;
42964;SDS011;28604;51.204;22.552;2024-01-11T08:25:22;108.85;;;42.55;;
42964;SDS011;28604;51.204;22.552;2024-01-11T08:27:48;102.88;;;41.60;;
42964;SDS011;28604;51.204;22.552;2024-01-11T08:30:14;99.80;;;42.60;;
42964;SDS011;28604;51.204;22.552;2024-01-11T08:32:41;108.43;;;41.72;;
42964;SDS011;28604;51.204;22.552;2024-01-11T08:35:11;105.93;;;41.25;;
42964;SDS011;28604;51.204;22.552;2024-01-11T08:37:37;99.80;;;40.30;;
42964;SDS011;28604;51.204;22.552;2024-01-11T08:40:04;97.78;;;40.03;;
42964;SDS011;28604;51.204;22.552;2024-01-11T08:42:31;103.18;;;42.47;;
42964;SDS011;28604;51.204;22.552;2024-01-11T08:44:58;95.53;;;38.28;;
42964;SDS011;28604;51.204;22.552;2024-01-11T08:47:25;94.82;;;39.25;;
42964;SDS011;28604;51.204;22.552;2024-01-11T08:49:51;91.65;;;39.10;;
42964;SDS011;28604;51.204;22.552;2024-01-11T08:52:17;99.90;;;41.17;;
42964;SDS011;28604;51.204;22.552;2024-01-11T08:54:43;100.97;;;40.83;;
42964;SDS011;28604;51.204;22.552;2024-01-11T08:57:08;104.72;;;43.50;;
42964;SDS011;28604;51.204;22.552;2024-01-11T08:59:35;107.78;;;43.75;;
42964;SDS011;28604;51.204;22.552;2024-01-11T09:02:00;102.30;;;41.35;;
42964;SDS011;28604;51.204;22.552;2024-01-11T09:04:27;104.15;;;42.72;;
42964;SDS011;28604;51.204;22.552;2024-01-11T09:06:55;109.63;;;41.97;;
42964;SDS011;28604;51.204;22.552;2024-01-11T09:09:21;107.82;;;41.15;;
42964;SDS011;28604;51.204;22.552;2024-01-11T09:11:47;100.85;;;42.30;;
42964;SDS011;28604;51.204;22.552;2024-01-11T09:14:15;106.07;;;43.47;;
42964;SDS011;28604;51.204;22.552;2024-01-11T09:16:41;100.07;;;42.38;;
42964;SDS011;28604;51.204;22.552;2024-01-11T09:19:07;104.45;;;43.65;;
42964;SDS011;28604;51.204;22.552;2024-01-11T09:21:33;111.50;;;44.35;;
42964;SDS011;28604;51.204;22.552;2024-01-11T09:23:59;110.43;;;43.20;;
42964;SDS011;28604;51.204;22.552;2024-01-11T09:26:24;109.50;;;44.30;;
42964;SDS011;28604;51.204;22.552;2024-01-11T09:28:51;105.38;;;42.20;;
42964;SDS011;28604;51.204;22.552;2024-01-11T09:31:16;102.22;;;41.00;;
42964;SDS011;28604;51.204;22.552;2024-01-11T09:33:42;101.47;;;42.08;;
42964;SDS011;28604;51.204;22.552;2024-01-11T09:36:11;101.78;;;43.67;;
42964;SDS011;28604;51.204;22.552;2024-01-11T09:38:38;101.97;;;45.38;;
42964;SDS011;28604;51.204;22.552;2024-01-11T09:41:10;98.22;;;40.55;;
42964;SDS011;28604;51.204;22.552;2024-01-11T09:43:40;101.10;;;42.85;;
42964;SDS011;28604;51.204;22.552;2024-01-11T09:46:07;109.18;;;42.65;;
42964;SDS011;28604;51.204;22.552;2024-01-11T09:48:35;105.40;;;44.08;;
42964;SDS011;28604;51.204;22.552;2024-01-11T09:51:04;101.93;;;42.05;;
42964;SDS011;28604;51.204;22.552;2024-01-11T09:53:33;100.50;;;42.13;;
42964;SDS011;28604;51.204;22.552;2024-01-11T09:56:00;103.10;;;42.08;;
42964;SDS011;28604;51.204;22.552;2024-01-11T09:58:26;104.55;;;42.85;;
42964;SDS011;28604;51.204;22.552;2024-01-11T10:00:54;106.55;;;42.75;;
42964;SDS011;28604;51.204;22.552;2024-01-11T10:03:24;108.50;;;42.90;;
42964;SDS011;28604;51.204;22.552;2024-01-11T10:05:53;96.00;;;40.55;;
42964;SDS011;28604;51.204;22.552;2024-01-11T10:08:22;107.75;;;44.33;;
42964;SDS011;28604;51.204;22.552;2024-01-11T10:10:49;103.35;;;41.95;;
42964;SDS011;28604;51.204;22.552;2024-01-11T10:13:15;102.80;;;43.17;;
42964;SDS011;28604;51.204;22.552;2024-01-11T10:15:42;107.80;;;43.50;;
42964;SDS011;28604;51.204;22.552;2024-01-11T10:18:08;101.50;;;40.63;;
42964;SDS011;28604;51.204;22.552;2024-01-11T10:20:34;94.93;;;38.40;;
42964;SDS011;28604;51.204;22.552;2024-01-11T10:23:02;96.10;;;39.00;;
42964;SDS011;28604;51.204;22.552;2024-01-11T10:25:28;95.85;;;39.38;;
42964;SDS011;28604;51.204;22.552;2024-01-11T10:27:54;94.45;;;39.47;;
42964;SDS011;28604;51.204;22.552;2024-01-11T10:30:20;103.32;;;39.63;;
42964;SDS011;28604;51.204;22.552;2024-01-11T10:32:48;91.47;;;39.45;;
42964;SDS011;28604;51.204;22.552;2024-01-11T10:35:15;100.93;;;42.15;;
42964;SDS011;28604;51.204;22.552;2024-01-11T10:37:43;101.32;;;40.67;;
42964;SDS011;28604;51.204;22.552;2024-01-11T10:40:10;103.07;;;41.78;;
42964;SDS011;28604;51.204;22.552;2024-01-11T10:42:41;105.05;;;43.03;;
42964;SDS011;28604;51.204;22.552;2024-01-11T10:45:15;110.07;;;44.65;;
42964;SDS011;28604;51.204;22.552;2024-01-11T10:47:45;102.35;;;41.50;;
42964;SDS011;28604;51.204;22.552;2024-01-11T10:50:17;109.55;;;43.97;;
42964;SDS011;28604;51.204;22.552;2024-01-11T10:58:04;108.15;;;42.45;;
42964;SDS011;28604;51.204;22.552;2024-01-11T11:00:31;103.75;;;41.35;;
42964;SDS011;28604;51.204;22.552;2024-01-11T11:02:57;111.65;;;43.55;;
42964;SDS011;28604;51.204;22.552;2024-01-11T11:05:28;100.65;;;41.42;;
42964;SDS011;28604;51.204;22.552;2024-01-11T11:07:56;98.72;;;40.95;;
42964;SDS011;28604;51.204;22.552;2024-01-11T11:10:23;112.07;;;42.53;;
42964;SDS011;28604;51.204;22.552;2024-01-11T11:12:51;96.45;;;41.10;;
42964;SDS011;28604;51.204;22.552;2024-01-11T11:15:22;94.45;;;41.78;;
42964;SDS011;28604;51.204;22.552;2024-01-11T11:17:49;104.05;;;42.85;;
42964;SDS011;28604;51.204;22.552;2024-01-11T11:20:15;98.35;;;40.90;;
42964;SDS011;28604;51.204;22.552;2024-01-11T11:22:42;96.20;;;43.72;;
42964;SDS011;28604;51.204;22.552;2024-01-11T11:25:13;99.80;;;41.72;;
42964;SDS011;28604;51.204;22.552;2024-01-11T11:27:50;110.00;;;43.33;;
42964;SDS011;28604;51.204;22.552;2024-01-11T11:30:18;100.88;;;42.63;;
42964;SDS011;28604;51.204;22.552;2024-01-11T11:32:45;108.63;;;43.58;;
42964;SDS011;28604;51.204;22.552;2024-01-11T11:35:11;106.93;;;43.75;;
42964;SDS011;28604;51.204;22.552;2024-01-11T11:37:38;104.15;;;42.22;;
42964;SDS011;28604;51.204;22.552;2024-01-11T11:40:08;99.82;;;43.20;;
42964;SDS011;28604;51.204;22.552;2024-01-11T11:42:36;104.85;;;45.20;;
42964;SDS011;28604;51.204;22.552;2024-01-11T11:45:02;103.00;;;43.75;;
42964;SDS011;28604;51.204;22.552;2024-01-11T11:47:33;98.93;;;43.03;;
42964;SDS011;28604;51.204;22.552;2024-01-11T11:50:10;99.80;;;42.20;;
42964;SDS011;28604;51.204;22.552;2024-01-11T11:52:38;108.72;;;45.42;;
42964;SDS011;28604;51.204;22.552;2024-01-11T11:55:07;104.20;;;44.53;;
42964;SDS011;28604;51.204;22.552;2024-01-11T11:57:37;98.97;;;41.95;;
42964;SDS011;28604;51.204;22.552;2024-01-11T12:00:03;105.18;;;42.17;;
42964;SDS011;28604;51.204;22.552;2024-01-11T12:02:38;105.78;;;44.15;;
42964;SDS011;28604;51.204;22.552;2024-01-11T12:05:04;103.40;;;42.78;;
42964;SDS011;28604;51.204;22.552;2024-01-11T12:07:31;111.38;;;44.00;;
42964;SDS011;28604;51.204;22.552;2024-01-11T12:09:57;104.60;;;44.88;;
42964;SDS011;28604;51.204;22.552;2024-01-11T12:12:23;104.75;;;42.92;;
42964;SDS011;28604;51.204;22.552;2024-01-11T12:14:49;102.18;;;42.78;;
42964;SDS011;28604;51.204;22.552;2024-01-11T12:17:16;98.82;;;42.88;;
42964;SDS011;28604;51.204;22.552;2024-01-11T12:19:42;102.25;;;41.28;;
42964;SDS011;28604;51.204;22.552;2024-01-11T12:22:08;99.38;;;41.30;;
42964;SDS011;28604;51.204;22.552;2024-01-11T12:24:34;95.63;;;40.83;;
42964;SDS011;28604;51.204;22.552;2024-01-11T12:27:01;102.35;;;42.47;;
42964;SDS011;28604;51.204;22.552;2024-01-11T12:29:30;106.95;;;42.63;;
42964;SDS011;28604;51.204;22.552;2024-01-11T12:31:57;95.50;;;41.78;;
42964;SDS011;28604;51.204;22.552;2024-01-11T12:34:24;103.22;;;41.42;;
42964;SDS011;28604;51.204;22.552;2024-01-11T12:36:54;90.70;;;39.47;;
42964;SDS011;28604;51.204;22.552;2024-01-11T12:39:21;94.50;;;39.35;;
42964;SDS011;28604;51.204;22.552;2024-01-11T12:41:50;90.13;;;36.03;;
42964;SDS011;28604;51.204;22.552;2024-01-11T12:44:17;87.68;;;38.38;;
42964;SDS011;28604;51.204;22.552;2024-01-11T12:46:45;92.07;;;37.75;;
42964;SDS011;28604;51.204;22.552;2024-01-11T12:49:12;95.78;;;40.08;;
42964;SDS011;28604;51.204;22.552;2024-01-11T12:51:38;84.65;;;38.67;;
42964;SDS011;28604;51.204;22.552;2024-01-11T12:54:05;91.53;;;37.10;;
42964;SDS011;28604;51.204;22.552;2024-01-11T12:56:40;87.75;;;37.92;;
42964;SDS011;28604;51.204;22.552;2024-01-11T12:59:07;88.40;;;36.55;;
42964;SDS011;28604;51.204;22.552;2024-01-11T13:01:34;88.65;;;37.63;;
42964;SDS011;28604;51.204;22.552;2024-01-11T13:04:03;89.00;;;38.35;;
42964;SDS011;28604;51.204;22.552;2024-01-11T13:06:30;94.88;;;38.63;;
42964;SDS011;28604;51.204;22.552;2024-01-11T13:08:56;90.25;;;37.60;;
42964;SDS011;28604;51.204;22.552;2024-01-11T13:11:23;87.05;;;37.78;;
42964;SDS011;28604;51.204;22.552;2024-01-11T13:13:53;90.20;;;37.58;;
42964;SDS011;28604;51.204;22.552;2024-01-11T13:16:19;89.40;;;38.25;;
42964;SDS011;28604;51.204;22.552;2024-01-11T13:18:46;82.38;;;38.00;;
42964;SDS011;28604;51.204;22.552;2024-01-11T13:21:12;83.97;;;36.28;;
42964;SDS011;28604;51.204;22.552;2024-01-11T13:23:38;79.78;;;34.55;;
42964;SDS011;28604;51.204;22.552;2024-01-11T13:26:06;91.57;;;39.35;;
42964;SDS011;28604;51.204;22.552;2024-01-11T13:28:35;88.40;;;36.70;;
42964;SDS011;28604;51.204;22.552;2024-01-11T13:31:02;95.60;;;38.50;;
42964;SDS011;28604;51.204;22.552;2024-01-11T13:33:34;77.82;;;35.08;;
42964;SDS011;28604;51.204;22.552;2024-01-11T13:36:02;82.38;;;37.08;;
42964;SDS011;28604;51.204;22.552;2024-01-11T13:38:28;86.50;;;36.85;;
42964;SDS011;28604;51.204;22.552;2024-01-11T13:40:56;86.90;;;37.00;;
42964;SDS011;28604;51.204;22.552;2024-01-11T13:43:22;81.78;;;36.03;;
42964;SDS011;28604;51.204;22.552;2024-01-11T13:45:49;87.55;;;36.78;;
42964;SDS011;28604;51.204;22.552;2024-01-11T13:48:20;86.07;;;36.80;;
42964;SDS011;28604;51.204;22.552;2024-01-11T13:50:46;82.88;;;35.90;;
42964;SDS011;28604;51.204;22.552;2024-01-11T13:53:11;84.20;;;35.33;;
42964;SDS011;28604;51.204;22.552;2024-01-11T13:55:37;81.82;;;35.03;;
42964;SDS011;28604;51.204;22.552;2024-01-11T13:58:03;83.47;;;36.70;;
42964;SDS011;28604;51.204;22.552;2024-01-11T14:00:30;72.25;;;33.92;;
42964;SDS011;28604;51.204;22.552;2024-01-11T14:02:56;83.10;;;34.03;;
42964;SDS011;28604;51.204;22.552;2024-01-11T14:05:22;74.78;;;31.45;;
42964;SDS011;28604;51.204;22.552;2024-01-11T14:07:48;77.85;;;33.35;;
42964;SDS011;28604;51.204;22.552;2024-01-11T14:10:19;72.13;;;33.85;;
42964;SDS011;28604;51.204;22.552;2024-01-11T14:12:45;67.13;;;31.08;;
42964;SDS011;28604;51.204;22.552;2024-01-11T14:15:11;76.50;;;31.90;;